sensor_id;sensor_type;location;lat;lon;timestamp;P1;durP1;ratioP1;P2;durP2;ratioP2
19863;SDS011;10094;48.820;9.226;2022-08-01T00:04:06;2.83;;;2.40;;
19863;SDS011;10094;48.820;9.226;2022-08-01T00:10:48;3.58;;;2.28;;
19863;SDS011;10094;48.820;9.226;2022-08-01T00:17:31;3.55;;;2.80;;
19863;SDS011;10094;48.820;9.226;2022-08-01T00:24:14;3.38;;;2.55;;
19863;SDS011;10094;48.820;9.226;2022-08-01T00:30:58;3.75;;;2.40;;
19863;SDS011;10094;48.820;9.226;2022-08-01T00:37:43;3.97;;;2.30;;
19863;SDS011;10094;48.820;9.226;2022-08-01T00:44:26;2.72;;;2.20;;
19863;SDS011;10094;48.820;9.226;2022-08-01T00:51:09;3.00;;;2.40;;
19863;SDS011;10094;48.820;9.226;2022-08-01T00:57:52;2.83;;;2.50;;
19863;SDS011;10094;48.820;9.226;2022-08-01T01:04:46;2.65;;;2.40;;
19863;SDS011;10094;48.820;9.226;2022-08-01T01:11:32;3.20;;;2.90;;
19863;SDS011;10094;48.820;9.226;2022-08-01T01:18:24;3.10;;;2.80;;
19863;SDS011;10094;48.820;9.226;2022-08-01T01:32:17;5.05;;;2.47;;
19863;SDS011;10094;48.820;9.226;2022-08-01T01:39:11;4.93;;;2.65;;
19863;SDS011;10094;48.820;9.226;2022-08-01T01:45:56;3.00;;;2.72;;
19863;SDS011;10094;48.820;9.226;2022-08-01T01:52:39;6.32;;;2.75;;
19863;SDS011;10094;48.820;9.226;2022-08-01T01:59:24;2.78;;;2.58;;
19863;SDS011;10094;48.820;9.226;2022-08-01T02:06:11;2.80;;;2.50;;
19863;SDS011;10094;48.820;9.226;2022-08-01T02:12:57;2.90;;;2.60;;
19863;SDS011;10094;48.820;9.226;2022-08-01T02:19:46;3.03;;;2.72;;
19863;SDS011;10094;48.820;9.226;2022-08-01T02:26:29;3.63;;;2.80;;
19863;SDS011;10094;48.820;9.226;2022-08-01T02:40:00;2.92;;;2.60;;
19863;SDS011;10094;48.820;9.226;2022-08-01T02:46:57;3.80;;;2.70;;
19863;SDS011;10094;48.820;9.226;2022-08-01T02:53:46;4.63;;;2.90;;
19863;SDS011;10094;48.820;9.226;2022-08-01T03:00:30;4.40;;;2.85;;
19863;SDS011;10094;48.820;9.226;2022-08-01T03:07:51;3.15;;;2.60;;
19863;SDS011;10094;48.820;9.226;2022-08-01T03:14:36;4.22;;;2.85;;
19863;SDS011;10094;48.820;9.226;2022-08-01T03:21:22;3.55;;;2.85;;
19863;SDS011;10094;48.820;9.226;2022-08-01T03:28:06;3.05;;;2.60;;
19863;SDS011;10094;48.820;9.226;2022-08-01T03:34:50;6.45;;;3.10;;
19863;SDS011;10094;48.820;9.226;2022-08-01T03:41:34;3.20;;;2.70;;
19863;SDS011;10094;48.820;9.226;2022-08-01T03:48:22;3.28;;;2.50;;
19863;SDS011;10094;48.820;9.226;2022-08-01T03:55:09;3.30;;;3.00;;
19863;SDS011;10094;48.820;9.226;2022-08-01T04:01:54;5.03;;;3.17;;
19863;SDS011;10094;48.820;9.226;2022-08-01T04:08:38;4.30;;;2.95;;
19863;SDS011;10094;48.820;9.226;2022-08-01T04:15:22;3.35;;;2.38;;
19863;SDS011;10094;48.820;9.226;2022-08-01T04:22:05;5.07;;;2.88;;
19863;SDS011;10094;48.820;9.226;2022-08-01T04:28:50;4.53;;;3.08;;
19863;SDS011;10094;48.820;9.226;2022-08-01T04:35:34;4.43;;;2.88;;
19863;SDS011;10094;48.820;9.226;2022-08-01T04:42:40;2.78;;;2.55;;
19863;SDS011;10094;48.820;9.226;2022-08-01T04:49:23;11.48;;;3.33;;
19863;SDS011;10094;48.820;9.226;2022-08-01T04:56:06;4.13;;;2.53;;
19863;SDS011;10094;48.820;9.226;2022-08-01T05:02:49;3.17;;;2.55;;
19863;SDS011;10094;48.820;9.226;2022-08-01T05:09:52;4.63;;;3.00;;
19863;SDS011;10094;48.820;9.226;2022-08-01T05:16:34;4.32;;;2.55;;
19863;SDS011;10094;48.820;9.226;2022-08-01T05:23:18;5.03;;;2.60;;
19863;SDS011;10094;48.820;9.226;2022-08-01T05:30:21;5.85;;;2.28;;
19863;SDS011;10094;48.820;9.226;2022-08-01T05:37:22;3.70;;;2.10;;
19863;SDS011;10094;48.820;9.226;2022-08-01T05:44:04;5.65;;;2.17;;
19863;SDS011;10094;48.820;9.226;2022-08-01T05:50:48;2.10;;;1.80;;
19863;SDS011;10094;48.820;9.226;2022-08-01T05:58:07;2.33;;;1.90;;
19863;SDS011;10094;48.820;9.226;2022-08-01T06:04:53;2.28;;;1.80;;
19863;SDS011;10094;48.820;9.226;2022-08-01T06:11:36;7.05;;;2.55;;
19863;SDS011;10094;48.820;9.226;2022-08-01T06:18:18;5.38;;;2.08;;
19863;SDS011;10094;48.820;9.226;2022-08-01T06:25:01;2.22;;;1.52;;
19863;SDS011;10094;48.820;9.226;2022-08-01T06:31:46;3.42;;;1.90;;
19863;SDS011;10094;48.820;9.226;2022-08-01T06:38:29;2.50;;;1.77;;
19863;SDS011;10094;48.820;9.226;2022-08-01T06:45:12;2.75;;;1.80;;
19863;SDS011;10094;48.820;9.226;2022-08-01T06:51:55;3.30;;;1.60;;
19863;SDS011;10094;48.820;9.226;2022-08-01T06:58:37;3.80;;;1.58;;
19863;SDS011;10094;48.820;9.226;2022-08-01T07:05:20;4.80;;;2.08;;
19863;SDS011;10094;48.820;9.226;2022-08-01T07:12:03;2.97;;;1.80;;
19863;SDS011;10094;48.820;9.226;2022-08-01T07:18:46;2.35;;;1.48;;
19863;SDS011;10094;48.820;9.226;2022-08-01T07:25:29;1.70;;;1.52;;
19863;SDS011;10094;48.820;9.226;2022-08-01T07:32:11;3.70;;;1.83;;
19863;SDS011;10094;48.820;9.226;2022-08-01T07:38:54;3.08;;;1.52;;
19863;SDS011;10094;48.820;9.226;2022-08-01T07:45:37;2.00;;;1.55;;
19863;SDS011;10094;48.820;9.226;2022-08-01T07:52:27;3.60;;;1.75;;
19863;SDS011;10094;48.820;9.226;2022-08-01T07:59:09;2.22;;;2.03;;
19863;SDS011;10094;48.820;9.226;2022-08-01T08:05:52;3.33;;;1.67;;
19863;SDS011;10094;48.820;9.226;2022-08-01T08:12:41;2.45;;;1.80;;
19863;SDS011;10094;48.820;9.226;2022-08-01T08:19:24;1.88;;;1.35;;
19863;SDS011;10094;48.820;9.226;2022-08-01T08:26:19;2.10;;;1.88;;
19863;SDS011;10094;48.820;9.226;2022-08-01T08:33:02;3.17;;;1.90;;
19863;SDS011;10094;48.820;9.226;2022-08-01T08:39:54;2.42;;;2.10;;
19863;SDS011;10094;48.820;9.226;2022-08-01T08:46:41;5.75;;;2.08;;
19863;SDS011;10094;48.820;9.226;2022-08-01T08:53:28;3.53;;;2.03;;
19863;SDS011;10094;48.820;9.226;2022-08-01T09:00:15;3.47;;;1.98;;
19863;SDS011;10094;48.820;9.226;2022-08-01T09:06:58;3.47;;;2.35;;
19863;SDS011;10094;48.820;9.226;2022-08-01T09:13:41;3.05;;;2.20;;
19863;SDS011;10094;48.820;9.226;2022-08-01T09:20:26;3.33;;;1.92;;
19863;SDS011;10094;48.820;9.226;2022-08-01T09:27:19;4.90;;;3.10;;
19863;SDS011;10094;48.820;9.226;2022-08-01T09:34:06;3.50;;;2.80;;
19863;SDS011;10094;48.820;9.226;2022-08-01T09:40:54;3.05;;;2.38;;
19863;SDS011;10094;48.820;9.226;2022-08-01T09:47:58;4.03;;;2.63;;
19863;SDS011;10094;48.820;9.226;2022-08-01T09:54:55;3.30;;;2.80;;
19863;SDS011;10094;48.820;9.226;2022-08-01T10:01:47;4.10;;;3.10;;
19863;SDS011;10094;48.820;9.226;2022-08-01T10:08:34;4.35;;;3.67;;
19863;SDS011;10094;48.820;9.226;2022-08-01T10:15:28;4.40;;;3.50;;
19863;SDS011;10094;48.820;9.226;2022-08-01T10:22:19;3.35;;;3.05;;
19863;SDS011;10094;48.820;9.226;2022-08-01T10:29:04;4.18;;;3.45;;
19863;SDS011;10094;48.820;9.226;2022-08-01T10:36:07;3.00;;;2.50;;
19863;SDS011;10094;48.820;9.226;2022-08-01T10:42:51;2.53;;;2.33;;
19863;SDS011;10094;48.820;9.226;2022-08-01T10:49:36;3.67;;;2.90;;
19863;SDS011;10094;48.820;9.226;2022-08-01T10:56:43;4.35;;;2.90;;
19863;SDS011;10094;48.820;9.226;2022-08-01T11:10:46;2.70;;;2.50;;
19863;SDS011;10094;48.820;9.226;2022-08-01T11:17:36;2.65;;;2.35;;
19863;SDS011;10094;48.820;9.226;2022-08-01T11:31:32;2.90;;;2.60;;
19863;SDS011;10094;48.820;9.226;2022-08-01T11:38:22;2.97;;;2.60;;
19863;SDS011;10094;48.820;9.226;2022-08-01T11:45:08;2.85;;;2.30;;
19863;SDS011;10094;48.820;9.226;2022-08-01T11:51:56;3.10;;;2.38;;
19863;SDS011;10094;48.820;9.226;2022-08-01T11:58:40;3.58;;;2.35;;
19863;SDS011;10094;48.820;9.226;2022-08-01T12:05:23;3.97;;;2.17;;
19863;SDS011;10094;48.820;9.226;2022-08-01T12:12:07;3.38;;;2.22;;
19863;SDS011;10094;48.820;9.226;2022-08-01T12:18:50;6.07;;;2.40;;
19863;SDS011;10094;48.820;9.226;2022-08-01T12:25:33;2.40;;;2.03;;
19863;SDS011;10094;48.820;9.226;2022-08-01T12:32:38;3.85;;;2.40;;
19863;SDS011;10094;48.820;9.226;2022-08-01T12:39:20;2.83;;;2.30;;
19863;SDS011;10094;48.820;9.226;2022-08-01T12:46:02;2.67;;;2.25;;
19863;SDS011;10094;48.820;9.226;2022-08-01T12:52:46;2.67;;;2.47;;
19863;SDS011;10094;48.820;9.226;2022-08-01T12:59:29;2.40;;;1.98;;
19863;SDS011;10094;48.820;9.226;2022-08-01T13:06:14;4.80;;;2.30;;
19863;SDS011;10094;48.820;9.226;2022-08-01T13:12:58;3.92;;;2.38;;
19863;SDS011;10094;48.820;9.226;2022-08-01T13:19:46;3.45;;;2.38;;
19863;SDS011;10094;48.820;9.226;2022-08-01T13:33:46;2.85;;;1.95;;
19863;SDS011;10094;48.820;9.226;2022-08-01T13:40:40;2.33;;;1.83;;
19863;SDS011;10094;48.820;9.226;2022-08-01T13:47:23;2.92;;;2.20;;
19863;SDS011;10094;48.820;9.226;2022-08-01T13:54:14;3.08;;;2.10;;
19863;SDS011;10094;48.820;9.226;2022-08-01T14:09:24;3.28;;;2.30;;
19863;SDS011;10094;48.820;9.226;2022-08-01T14:16:13;2.55;;;2.22;;
19863;SDS011;10094;48.820;9.226;2022-08-01T14:22:56;3.50;;;2.17;;
19863;SDS011;10094;48.820;9.226;2022-08-01T14:29:38;3.50;;;2.10;;
19863;SDS011;10094;48.820;9.226;2022-08-01T14:36:41;2.78;;;2.17;;
19863;SDS011;10094;48.820;9.226;2022-08-01T14:43:24;6.18;;;2.40;;
19863;SDS011;10094;48.820;9.226;2022-08-01T14:50:14;3.58;;;2.20;;
19863;SDS011;10094;48.820;9.226;2022-08-01T14:56:57;3.90;;;2.42;;
19863;SDS011;10094;48.820;9.226;2022-08-01T15:03:40;3.05;;;2.60;;
19863;SDS011;10094;48.820;9.226;2022-08-01T15:10:22;3.88;;;2.10;;
19863;SDS011;10094;48.820;9.226;2022-08-01T15:17:05;2.65;;;2.05;;
19863;SDS011;10094;48.820;9.226;2022-08-01T15:23:49;2.75;;;2.55;;
19863;SDS011;10094;48.820;9.226;2022-08-01T15:30:31;2.00;;;1.80;;
19863;SDS011;10094;48.820;9.226;2022-08-01T15:37:14;2.15;;;1.90;;
19863;SDS011;10094;48.820;9.226;2022-08-01T15:43:57;2.35;;;2.15;;
19863;SDS011;10094;48.820;9.226;2022-08-01T15:50:39;2.83;;;2.30;;
19863;SDS011;10094;48.820;9.226;2022-08-01T15:57:22;3.20;;;2.72;;
19863;SDS011;10094;48.820;9.226;2022-08-01T16:04:04;6.93;;;2.40;;
19863;SDS011;10094;48.820;9.226;2022-08-01T16:10:48;2.95;;;1.75;;
19863;SDS011;10094;48.820;9.226;2022-08-01T16:17:30;2.03;;;1.83;;
19863;SDS011;10094;48.820;9.226;2022-08-01T16:24:13;1.85;;;1.75;;
19863;SDS011;10094;48.820;9.226;2022-08-01T16:30:55;2.85;;;1.80;;
19863;SDS011;10094;48.820;9.226;2022-08-01T16:37:58;1.63;;;1.40;;
19863;SDS011;10094;48.820;9.226;2022-08-01T16:44:40;2.13;;;1.75;;
19863;SDS011;10094;48.820;9.226;2022-08-01T16:51:26;2.70;;;1.67;;
19863;SDS011;10094;48.820;9.226;2022-08-01T16:58:31;2.85;;;1.58;;
19863;SDS011;10094;48.820;9.226;2022-08-01T17:05:14;1.98;;;1.73;;
19863;SDS011;10094;48.820;9.226;2022-08-01T17:19:03;1.92;;;1.58;;
19863;SDS011;10094;48.820;9.226;2022-08-01T17:25:46;1.60;;;1.50;;
19863;SDS011;10094;48.820;9.226;2022-08-01T17:32:29;2.67;;;2.20;;
19863;SDS011;10094;48.820;9.226;2022-08-01T17:39:11;3.08;;;1.77;;
19863;SDS011;10094;48.820;9.226;2022-08-01T17:45:54;3.08;;;1.70;;
19863;SDS011;10094;48.820;9.226;2022-08-01T17:52:38;2.33;;;1.33;;
19863;SDS011;10094;48.820;9.226;2022-08-01T17:59:21;3.90;;;1.50;;
19863;SDS011;10094;48.820;9.226;2022-08-01T18:06:03;1.90;;;1.60;;
19863;SDS011;10094;48.820;9.226;2022-08-01T18:12:46;2.20;;;1.70;;
19863;SDS011;10094;48.820;9.226;2022-08-01T18:19:28;1.40;;;1.30;;
19863;SDS011;10094;48.820;9.226;2022-08-01T18:26:11;1.50;;;1.40;;
19863;SDS011;10094;48.820;9.226;2022-08-01T18:32:53;2.20;;;1.65;;
19863;SDS011;10094;48.820;9.226;2022-08-01T18:39:36;1.52;;;1.42;;
19863;SDS011;10094;48.820;9.226;2022-08-01T18:46:19;1.50;;;1.40;;
19863;SDS011;10094;48.820;9.226;2022-08-01T18:53:02;2.10;;;1.67;;
19863;SDS011;10094;48.820;9.226;2022-08-01T18:59:44;1.83;;;1.40;;
19863;SDS011;10094;48.820;9.226;2022-08-01T19:06:27;2.95;;;1.90;;
19863;SDS011;10094;48.820;9.226;2022-08-01T19:13:09;3.53;;;2.25;;
19863;SDS011;10094;48.820;9.226;2022-08-01T19:19:53;3.45;;;1.98;;
19863;SDS011;10094;48.820;9.226;2022-08-01T19:26:36;3.75;;;1.75;;
19863;SDS011;10094;48.820;9.226;2022-08-01T19:33:24;2.78;;;1.65;;
19863;SDS011;10094;48.820;9.226;2022-08-01T19:40:10;3.72;;;1.63;;
19863;SDS011;10094;48.820;9.226;2022-08-01T19:47:08;3.22;;;1.58;;
19863;SDS011;10094;48.820;9.226;2022-08-01T19:53:52;3.75;;;1.60;;
19863;SDS011;10094;48.820;9.226;2022-08-01T20:00:37;6.35;;;2.47;;
19863;SDS011;10094;48.820;9.226;2022-08-01T20:07:56;1.88;;;1.13;;
19863;SDS011;10094;48.820;9.226;2022-08-01T20:14:40;4.60;;;1.83;;
19863;SDS011;10094;48.820;9.226;2022-08-01T22:40:21;3.58;;;1.58;;
19863;SDS011;10094;48.820;9.226;2022-08-01T22:47:06;2.90;;;1.88;;
19863;SDS011;10094;48.820;9.226;2022-08-01T22:54:11;2.58;;;1.90;;
19863;SDS011;10094;48.820;9.226;2022-08-01T23:00:57;2.35;;;1.77;;
19863;SDS011;10094;48.820;9.226;2022-08-01T23:08:24;2.33;;;1.80;;
19863;SDS011;10094;48.820;9.226;2022-08-01T23:15:08;3.15;;;2.03;;
19863;SDS011;10094;48.820;9.226;2022-08-01T23:21:52;2.25;;;1.67;;
19863;SDS011;10094;48.820;9.226;2022-08-01T23:28:39;2.50;;;1.95;;
19863;SDS011;10094;48.820;9.226;2022-08-01T23:35:23;4.10;;;1.98;;
19863;SDS011;10094;48.820;9.226;2022-08-01T23:42:06;3.95;;;2.00;;
19863;SDS011;10094;48.820;9.226;2022-08-01T23:48:50;3.85;;;1.80;;
19863;SDS011;10094;48.820;9.226;2022-08-01T23:55:32;3.35;;;2.00;;
